sensor_id;sensor_type;location;lat;lon;timestamp;P1;durP1;ratioP1;P2;durP2;ratioP2
22939;SDS011;11636;52.086;5.090;2024-03-29T00:00:27;5.93;;;1.20;;
22939;SDS011;11636;52.086;5.090;2024-03-29T00:02:59;4.60;;;1.10;;
22939;SDS011;11636;52.086;5.090;2024-03-29T00:05:32;4.20;;;0.90;;
22939;SDS011;11636;52.086;5.090;2024-03-29T00:08:01;5.30;;;1.13;;
22939;SDS011;11636;52.086;5.090;2024-03-29T00:10:34;4.95;;;1.08;;
22939;SDS011;11636;52.086;5.090;2024-03-29T00:13:00;4.25;;;1.08;;
22939;SDS011;11636;52.086;5.090;2024-03-29T00:18:04;3.83;;;0.83;;
22939;SDS011;11636;52.086;5.090;2024-03-29T00:20:36;5.05;;;0.70;;
22939;SDS011;11636;52.086;5.090;2024-03-29T00:25:34;6.60;;;1.02;;
22939;SDS011;11636;52.086;5.090;2024-03-29T00:28:00;9.55;;;1.15;;
22939;SDS011;11636;52.086;5.090;2024-03-29T00:30:33;6.55;;;1.08;;
22939;SDS011;11636;52.086;5.090;2024-03-29T00:32:59;7.20;;;1.02;;
22939;SDS011;11636;52.086;5.090;2024-03-29T00:35:31;4.75;;;0.90;;
22939;SDS011;11636;52.086;5.090;2024-03-29T00:37:57;7.80;;;1.13;;
22939;SDS011;11636;52.086;5.090;2024-03-29T00:40:23;7.15;;;1.10;;
22939;SDS011;11636;52.086;5.090;2024-03-29T00:42:55;3.38;;;0.80;;
22939;SDS011;11636;52.086;5.090;2024-03-29T00:45:28;4.28;;;1.00;;
22939;SDS011;11636;52.086;5.090;2024-03-29T00:47:54;5.82;;;0.80;;
22939;SDS011;11636;52.086;5.090;2024-03-29T00:50:27;4.72;;;0.80;;
22939;SDS011;11636;52.086;5.090;2024-03-29T00:52:59;4.13;;;1.33;;
22939;SDS011;11636;52.086;5.090;2024-03-29T00:55:25;4.00;;;0.90;;
22939;SDS011;11636;52.086;5.090;2024-03-29T00:57:57;3.13;;;0.60;;
22939;SDS011;11636;52.086;5.090;2024-03-29T01:00:30;3.22;;;0.70;;
22939;SDS011;11636;52.086;5.090;2024-03-29T01:03:02;6.13;;;0.88;;
22939;SDS011;11636;52.086;5.090;2024-03-29T01:05:28;2.30;;;0.63;;
22939;SDS011;11636;52.086;5.090;2024-03-29T01:08:01;2.50;;;0.68;;
22939;SDS011;11636;52.086;5.090;2024-03-29T01:10:34;2.72;;;0.60;;
22939;SDS011;11636;52.086;5.090;2024-03-29T01:13:00;3.88;;;0.90;;
22939;SDS011;11636;52.086;5.090;2024-03-29T01:15:33;3.83;;;0.90;;
22939;SDS011;11636;52.086;5.090;2024-03-29T01:17:59;3.65;;;0.82;;
22939;SDS011;11636;52.086;5.090;2024-03-29T01:20:31;3.80;;;0.85;;
22939;SDS011;11636;52.086;5.090;2024-03-29T01:22:57;2.72;;;0.70;;
22939;SDS011;11636;52.086;5.090;2024-03-29T01:25:23;2.05;;;0.60;;
22939;SDS011;11636;52.086;5.090;2024-03-29T01:27:56;5.05;;;1.13;;
22939;SDS011;11636;52.086;5.090;2024-03-29T01:30:23;4.13;;;0.90;;
22939;SDS011;11636;52.086;5.090;2024-03-29T01:32:55;3.33;;;0.70;;
22939;SDS011;11636;52.086;5.090;2024-03-29T01:35:21;3.30;;;0.82;;
22939;SDS011;11636;52.086;5.090;2024-03-29T01:37:53;3.83;;;0.70;;
22939;SDS011;11636;52.086;5.090;2024-03-29T01:40:19;5.13;;;0.90;;
22939;SDS011;11636;52.086;5.090;2024-03-29T01:42:54;3.88;;;0.85;;
22939;SDS011;11636;52.086;5.090;2024-03-29T01:45:21;4.20;;;0.70;;
22939;SDS011;11636;52.086;5.090;2024-03-29T01:47:53;4.10;;;0.82;;
22939;SDS011;11636;52.086;5.090;2024-03-29T01:50:19;3.67;;;0.70;;
22939;SDS011;11636;52.086;5.090;2024-03-29T01:52:52;2.67;;;0.60;;
22939;SDS011;11636;52.086;5.090;2024-03-29T01:55:18;3.65;;;0.90;;
22939;SDS011;11636;52.086;5.090;2024-03-29T01:57:52;6.65;;;1.02;;
22939;SDS011;11636;52.086;5.090;2024-03-29T02:00:24;3.00;;;0.77;;
22939;SDS011;11636;52.086;5.090;2024-03-29T02:02:59;3.83;;;0.57;;
22939;SDS011;11636;52.086;5.090;2024-03-29T02:05:25;4.30;;;0.80;;
22939;SDS011;11636;52.086;5.090;2024-03-29T02:07:52;3.53;;;0.93;;
22939;SDS011;11636;52.086;5.090;2024-03-29T02:10:25;4.85;;;0.88;;
22939;SDS011;11636;52.086;5.090;2024-03-29T02:12:51;3.47;;;0.65;;
22939;SDS011;11636;52.086;5.090;2024-03-29T02:15:24;2.70;;;0.60;;
22939;SDS011;11636;52.086;5.090;2024-03-29T02:17:50;3.45;;;0.77;;
22939;SDS011;11636;52.086;5.090;2024-03-29T02:20:22;3.58;;;0.98;;
22939;SDS011;11636;52.086;5.090;2024-03-29T02:22:58;6.93;;;1.10;;
22939;SDS011;11636;52.086;5.090;2024-03-29T02:25:36;4.20;;;1.08;;
22939;SDS011;11636;52.086;5.090;2024-03-29T02:28:03;3.80;;;1.02;;
22939;SDS011;11636;52.086;5.090;2024-03-29T02:30:29;3.10;;;0.60;;
22939;SDS011;11636;52.086;5.090;2024-03-29T02:33:02;3.95;;;0.65;;
22939;SDS011;11636;52.086;5.090;2024-03-29T02:35:29;6.35;;;0.82;;
22939;SDS011;11636;52.086;5.090;2024-03-29T02:38:02;7.80;;;1.17;;
22939;SDS011;11636;52.086;5.090;2024-03-29T02:40:34;2.58;;;0.80;;
22939;SDS011;11636;52.086;5.090;2024-03-29T02:43:00;5.05;;;0.95;;
22939;SDS011;11636;52.086;5.090;2024-03-29T02:45:33;4.45;;;0.75;;
22939;SDS011;11636;52.086;5.090;2024-03-29T02:47:58;4.47;;;0.85;;
22939;SDS011;11636;52.086;5.090;2024-03-29T02:50:30;3.53;;;0.68;;
22939;SDS011;11636;52.086;5.090;2024-03-29T02:52:57;1.80;;;0.43;;
22939;SDS011;11636;52.086;5.090;2024-03-29T02:55:29;3.80;;;0.75;;
22939;SDS011;11636;52.086;5.090;2024-03-29T02:57:55;2.53;;;0.50;;
22939;SDS011;11636;52.086;5.090;2024-03-29T03:00:27;2.40;;;0.60;;
22939;SDS011;11636;52.086;5.090;2024-03-29T03:02:59;1.90;;;0.30;;
22939;SDS011;11636;52.086;5.090;2024-03-29T03:05:25;2.28;;;0.75;;
22939;SDS011;11636;52.086;5.090;2024-03-29T03:07:51;2.53;;;0.38;;
22939;SDS011;11636;52.086;5.090;2024-03-29T03:10:48;3.80;;;0.60;;
22939;SDS011;11636;52.086;5.090;2024-03-29T03:13:29;2.03;;;0.65;;
22939;SDS011;11636;52.086;5.090;2024-03-29T03:16:01;2.13;;;0.50;;
22939;SDS011;11636;52.086;5.090;2024-03-29T03:18:28;3.63;;;0.70;;
22939;SDS011;11636;52.086;5.090;2024-03-29T03:21:00;3.20;;;0.60;;
22939;SDS011;11636;52.086;5.090;2024-03-29T03:23:26;3.08;;;0.60;;
22939;SDS011;11636;52.086;5.090;2024-03-29T03:26:00;2.58;;;0.60;;
22939;SDS011;11636;52.086;5.090;2024-03-29T03:28:36;5.55;;;0.98;;
22939;SDS011;11636;52.086;5.090;2024-03-29T03:31:02;3.03;;;0.60;;
22939;SDS011;11636;52.086;5.090;2024-03-29T03:33:28;2.60;;;0.73;;
22939;SDS011;11636;52.086;5.090;2024-03-29T03:36:01;2.90;;;0.50;;
22939;SDS011;11636;52.086;5.090;2024-03-29T03:38:33;4.13;;;0.77;;
22939;SDS011;11636;52.086;5.090;2024-03-29T03:41:02;4.88;;;0.70;;
22939;SDS011;11636;52.086;5.090;2024-03-29T03:43:28;2.90;;;1.00;;
22939;SDS011;11636;52.086;5.090;2024-03-29T03:46:00;3.55;;;0.95;;
22939;SDS011;11636;52.086;5.090;2024-03-29T03:48:27;3.53;;;0.80;;
22939;SDS011;11636;52.086;5.090;2024-03-29T03:51:04;2.60;;;0.60;;
22939;SDS011;11636;52.086;5.090;2024-03-29T03:53:29;2.30;;;0.50;;
22939;SDS011;11636;52.086;5.090;2024-03-29T03:58:28;3.92;;;0.70;;
22939;SDS011;11636;52.086;5.090;2024-03-29T04:01:04;2.25;;;0.75;;
22939;SDS011;11636;52.086;5.090;2024-03-29T04:03:30;3.15;;;0.73;;
22939;SDS011;11636;52.086;5.090;2024-03-29T04:06:03;2.80;;;0.52;;
22939;SDS011;11636;52.086;5.090;2024-03-29T04:08:29;2.50;;;0.52;;
22939;SDS011;11636;52.086;5.090;2024-03-29T04:11:05;4.53;;;0.60;;
22939;SDS011;11636;52.086;5.090;2024-03-29T04:13:31;3.95;;;1.00;;
22939;SDS011;11636;52.086;5.090;2024-03-29T04:16:03;2.55;;;0.50;;
22939;SDS011;11636;52.086;5.090;2024-03-29T04:18:36;3.83;;;0.95;;
22939;SDS011;11636;52.086;5.090;2024-03-29T04:21:03;2.70;;;0.50;;
22939;SDS011;11636;52.086;5.090;2024-03-29T04:23:36;2.17;;;0.60;;
22939;SDS011;11636;52.086;5.090;2024-03-29T04:26:02;5.55;;;1.02;;
22939;SDS011;11636;52.086;5.090;2024-03-29T04:28:28;3.42;;;0.63;;
22939;SDS011;11636;52.086;5.090;2024-03-29T04:31:00;2.50;;;0.50;;
22939;SDS011;11636;52.086;5.090;2024-03-29T04:33:27;4.53;;;0.70;;
22939;SDS011;11636;52.086;5.090;2024-03-29T04:36:03;3.80;;;1.13;;
22939;SDS011;11636;52.086;5.090;2024-03-29T04:38:31;3.83;;;0.43;;
22939;SDS011;11636;52.086;5.090;2024-03-29T04:40:57;2.92;;;0.57;;
22939;SDS011;11636;52.086;5.090;2024-03-29T04:43:31;2.83;;;0.52;;
22939;SDS011;11636;52.086;5.090;2024-03-29T04:46:04;1.67;;;0.40;;
22939;SDS011;11636;52.086;5.090;2024-03-29T04:48:43;2.67;;;0.50;;
22939;SDS011;11636;52.086;5.090;2024-03-29T04:51:11;6.88;;;0.80;;
22939;SDS011;11636;52.086;5.090;2024-03-29T04:53:44;4.85;;;0.68;;
22939;SDS011;11636;52.086;5.090;2024-03-29T04:56:09;3.03;;;0.50;;
22939;SDS011;11636;52.086;5.090;2024-03-29T04:58:35;2.00;;;0.43;;
22939;SDS011;11636;52.086;5.090;2024-03-29T05:03:33;1.52;;;0.25;;
22939;SDS011;11636;52.086;5.090;2024-03-29T05:06:07;4.35;;;0.57;;
22939;SDS011;11636;52.086;5.090;2024-03-29T05:08:32;1.60;;;0.38;;
22939;SDS011;11636;52.086;5.090;2024-03-29T05:11:05;1.67;;;0.40;;
22939;SDS011;11636;52.086;5.090;2024-03-29T05:13:33;0.90;;;0.20;;
22939;SDS011;11636;52.086;5.090;2024-03-29T05:16:00;4.25;;;0.47;;
22939;SDS011;11636;52.086;5.090;2024-03-29T05:18:33;2.67;;;0.30;;
22939;SDS011;11636;52.086;5.090;2024-03-29T05:20:58;2.22;;;0.20;;
22939;SDS011;11636;52.086;5.090;2024-03-29T05:23:32;1.48;;;0.32;;
22939;SDS011;11636;52.086;5.090;2024-03-29T05:25:58;1.60;;;0.40;;
22939;SDS011;11636;52.086;5.090;2024-03-29T05:28:24;2.35;;;0.70;;
22939;SDS011;11636;52.086;5.090;2024-03-29T05:30:57;2.03;;;0.40;;
22939;SDS011;11636;52.086;5.090;2024-03-29T05:33:41;1.85;;;0.40;;
22939;SDS011;11636;52.086;5.090;2024-03-29T05:36:14;2.40;;;0.45;;
22939;SDS011;11636;52.086;5.090;2024-03-29T05:38:40;1.83;;;0.40;;
22939;SDS011;11636;52.086;5.090;2024-03-29T05:41:13;2.20;;;0.40;;
22939;SDS011;11636;52.086;5.090;2024-03-29T05:43:39;3.53;;;0.60;;
22939;SDS011;11636;52.086;5.090;2024-03-29T05:46:15;3.13;;;0.60;;
22939;SDS011;11636;52.086;5.090;2024-03-29T05:48:49;2.60;;;0.50;;
22939;SDS011;11636;52.086;5.090;2024-03-29T05:51:14;2.22;;;0.55;;
22939;SDS011;11636;52.086;5.090;2024-03-29T05:53:41;2.92;;;0.70;;
22939;SDS011;11636;52.086;5.090;2024-03-29T05:56:13;2.33;;;0.43;;
22939;SDS011;11636;52.086;5.090;2024-03-29T05:58:39;2.78;;;0.55;;
22939;SDS011;11636;52.086;5.090;2024-03-29T06:01:04;2.70;;;0.52;;
22939;SDS011;11636;52.086;5.090;2024-03-29T06:03:37;2.47;;;0.50;;
22939;SDS011;11636;52.086;5.090;2024-03-29T06:06:03;2.03;;;0.60;;
22939;SDS011;11636;52.086;5.090;2024-03-29T06:08:36;3.50;;;0.60;;
22939;SDS011;11636;52.086;5.090;2024-03-29T06:11:03;2.03;;;0.43;;
22939;SDS011;11636;52.086;5.090;2024-03-29T06:13:29;3.10;;;0.60;;
22939;SDS011;11636;52.086;5.090;2024-03-29T06:16:21;1.57;;;0.33;;
22939;SDS011;11636;52.086;5.090;2024-03-29T06:19:14;1.90;;;0.63;;
22939;SDS011;11636;52.086;5.090;2024-03-29T06:21:41;1.80;;;0.40;;
22939;SDS011;11636;52.086;5.090;2024-03-29T06:24:14;2.97;;;0.70;;
22939;SDS011;11636;52.086;5.090;2024-03-29T06:26:40;1.80;;;0.40;;
22939;SDS011;11636;52.086;5.090;2024-03-29T06:29:16;1.58;;;0.50;;
22939;SDS011;11636;52.086;5.090;2024-03-29T06:31:41;1.20;;;0.40;;
22939;SDS011;11636;52.086;5.090;2024-03-29T06:34:14;1.63;;;0.50;;
22939;SDS011;11636;52.086;5.090;2024-03-29T06:36:46;1.08;;;0.40;;
22939;SDS011;11636;52.086;5.090;2024-03-29T06:39:12;2.33;;;0.32;;
22939;SDS011;11636;52.086;5.090;2024-03-29T06:41:44;2.10;;;0.30;;
22939;SDS011;11636;52.086;5.090;2024-03-29T06:44:16;1.27;;;0.30;;
22939;SDS011;11636;52.086;5.090;2024-03-29T06:46:48;2.70;;;0.60;;
22939;SDS011;11636;52.086;5.090;2024-03-29T06:49:14;2.17;;;0.40;;
22939;SDS011;11636;52.086;5.090;2024-03-29T06:51:47;1.42;;;0.30;;
22939;SDS011;11636;52.086;5.090;2024-03-29T06:54:13;1.35;;;0.35;;
22939;SDS011;11636;52.086;5.090;2024-03-29T06:56:46;2.03;;;0.40;;
22939;SDS011;11636;52.086;5.090;2024-03-29T06:59:12;1.50;;;0.35;;
22939;SDS011;11636;52.086;5.090;2024-03-29T07:01:44;1.40;;;0.40;;
22939;SDS011;11636;52.086;5.090;2024-03-29T07:04:10;1.65;;;0.40;;
22939;SDS011;11636;52.086;5.090;2024-03-29T07:06:36;3.33;;;0.60;;
22939;SDS011;11636;52.086;5.090;2024-03-29T07:09:10;1.23;;;0.38;;
22939;SDS011;11636;52.086;5.090;2024-03-29T07:11:36;1.63;;;0.50;;
22939;SDS011;11636;52.086;5.090;2024-03-29T07:14:08;2.45;;;0.40;;
22939;SDS011;11636;52.086;5.090;2024-03-29T07:16:34;3.38;;;0.60;;
22939;SDS011;11636;52.086;5.090;2024-03-29T07:19:06;3.05;;;0.50;;
22939;SDS011;11636;52.086;5.090;2024-03-29T07:24:11;2.40;;;0.43;;
22939;SDS011;11636;52.086;5.090;2024-03-29T07:26:37;1.30;;;0.35;;
22939;SDS011;11636;52.086;5.090;2024-03-29T07:29:09;3.80;;;0.75;;
22939;SDS011;11636;52.086;5.090;2024-03-29T07:31:35;0.93;;;0.38;;
22939;SDS011;11636;52.086;5.090;2024-03-29T07:34:01;1.13;;;0.40;;
22939;SDS011;11636;52.086;5.090;2024-03-29T07:36:34;2.42;;;0.47;;
22939;SDS011;11636;52.086;5.090;2024-03-29T07:39:01;1.45;;;0.50;;
22939;SDS011;11636;52.086;5.090;2024-03-29T07:41:34;1.50;;;0.40;;
22939;SDS011;11636;52.086;5.090;2024-03-29T07:44:01;1.02;;;0.30;;
22939;SDS011;11636;52.086;5.090;2024-03-29T07:46:36;1.55;;;0.38;;
22939;SDS011;11636;52.086;5.090;2024-03-29T07:49:10;1.50;;;0.50;;
22939;SDS011;11636;52.086;5.090;2024-03-29T07:51:43;1.17;;;0.40;;
22939;SDS011;11636;52.086;5.090;2024-03-29T07:54:09;1.25;;;0.30;;
22939;SDS011;11636;52.086;5.090;2024-03-29T07:56:41;2.42;;;0.57;;
22939;SDS011;11636;52.086;5.090;2024-03-29T07:59:07;1.25;;;0.30;;
22939;SDS011;11636;52.086;5.090;2024-03-29T08:01:39;1.33;;;0.30;;
22939;SDS011;11636;52.086;5.090;2024-03-29T08:04:13;1.00;;;0.30;;
22939;SDS011;11636;52.086;5.090;2024-03-29T08:06:45;1.50;;;0.30;;
22939;SDS011;11636;52.086;5.090;2024-03-29T08:09:17;0.43;;;0.20;;
22939;SDS011;11636;52.086;5.090;2024-03-29T08:11:43;2.33;;;0.55;;
22939;SDS011;11636;52.086;5.090;2024-03-29T08:14:09;2.08;;;0.60;;
22939;SDS011;11636;52.086;5.090;2024-03-29T08:16:41;1.40;;;0.43;;
22939;SDS011;11636;52.086;5.090;2024-03-29T08:19:14;2.50;;;0.50;;
22939;SDS011;11636;52.086;5.090;2024-03-29T08:21:40;1.35;;;0.30;;
22939;SDS011;11636;52.086;5.090;2024-03-29T08:24:05;0.70;;;0.30;;
22939;SDS011;11636;52.086;5.090;2024-03-29T08:29:07;2.05;;;0.40;;
22939;SDS011;11636;52.086;5.090;2024-03-29T08:31:39;1.70;;;0.40;;
22939;SDS011;11636;52.086;5.090;2024-03-29T08:34:05;1.80;;;0.52;;
22939;SDS011;11636;52.086;5.090;2024-03-29T08:36:39;2.38;;;0.40;;
22939;SDS011;11636;52.086;5.090;2024-03-29T08:39:05;1.58;;;0.50;;
22939;SDS011;11636;52.086;5.090;2024-03-29T08:41:37;1.77;;;0.47;;
22939;SDS011;11636;52.086;5.090;2024-03-29T08:44:03;1.42;;;0.40;;
22939;SDS011;11636;52.086;5.090;2024-03-29T08:46:29;1.77;;;0.38;;
22939;SDS011;11636;52.086;5.090;2024-03-29T08:49:02;1.20;;;0.40;;
22939;SDS011;11636;52.086;5.090;2024-03-29T08:51:28;1.75;;;0.40;;
22939;SDS011;11636;52.086;5.090;2024-03-29T08:54:01;2.80;;;0.35;;
22939;SDS011;11636;52.086;5.090;2024-03-29T08:56:31;2.08;;;0.40;;
22939;SDS011;11636;52.086;5.090;2024-03-29T08:58:57;2.55;;;0.40;;
22939;SDS011;11636;52.086;5.090;2024-03-29T09:01:32;1.25;;;0.35;;
22939;SDS011;11636;52.086;5.090;2024-03-29T09:03:59;3.33;;;0.38;;
22939;SDS011;11636;52.086;5.090;2024-03-29T09:06:25;1.40;;;0.20;;
22939;SDS011;11636;52.086;5.090;2024-03-29T09:11:29;2.13;;;0.50;;
22939;SDS011;11636;52.086;5.090;2024-03-29T09:14:01;1.70;;;0.40;;
22939;SDS011;11636;52.086;5.090;2024-03-29T09:16:29;3.55;;;0.43;;
22939;SDS011;11636;52.086;5.090;2024-03-29T09:19:02;2.45;;;0.30;;
22939;SDS011;11636;52.086;5.090;2024-03-29T09:21:30;1.15;;;0.30;;
22939;SDS011;11636;52.086;5.090;2024-03-29T09:24:02;0.88;;;0.20;;
22939;SDS011;11636;52.086;5.090;2024-03-29T09:26:28;1.20;;;0.40;;
22939;SDS011;11636;52.086;5.090;2024-03-29T09:29:01;1.08;;;0.22;;
22939;SDS011;11636;52.086;5.090;2024-03-29T09:31:27;1.35;;;0.30;;
22939;SDS011;11636;52.086;5.090;2024-03-29T09:33:53;1.80;;;0.45;;
22939;SDS011;11636;52.086;5.090;2024-03-29T09:36:29;2.50;;;0.60;;
22939;SDS011;11636;52.086;5.090;2024-03-29T09:38:55;3.15;;;0.90;;
22939;SDS011;11636;52.086;5.090;2024-03-29T09:41:27;1.50;;;0.47;;
22939;SDS011;11636;52.086;5.090;2024-03-29T09:44:00;3.28;;;0.70;;
22939;SDS011;11636;52.086;5.090;2024-03-29T09:46:34;2.63;;;0.80;;
22939;SDS011;11636;52.086;5.090;2024-03-29T09:49:02;4.30;;;0.90;;
22939;SDS011;11636;52.086;5.090;2024-03-29T09:51:36;3.95;;;0.73;;
22939;SDS011;11636;52.086;5.090;2024-03-29T09:54:04;2.78;;;0.68;;
22939;SDS011;11636;52.086;5.090;2024-03-29T09:56:33;4.53;;;0.60;;
22939;SDS011;11636;52.086;5.090;2024-03-29T09:59:06;2.67;;;0.80;;
22939;SDS011;11636;52.086;5.090;2024-03-29T10:01:34;2.38;;;0.73;;
22939;SDS011;11636;52.086;5.090;2024-03-29T10:04:06;3.75;;;0.90;;
22939;SDS011;11636;52.086;5.090;2024-03-29T10:06:34;3.47;;;1.02;;
22939;SDS011;11636;52.086;5.090;2024-03-29T10:09:07;3.47;;;0.90;;
22939;SDS011;11636;52.086;5.090;2024-03-29T10:11:41;3.67;;;0.77;;
22939;SDS011;11636;52.086;5.090;2024-03-29T10:14:07;2.20;;;0.75;;
22939;SDS011;11636;52.086;5.090;2024-03-29T10:16:39;3.45;;;1.10;;
22939;SDS011;11636;52.086;5.090;2024-03-29T10:19:07;5.50;;;0.95;;
22939;SDS011;11636;52.086;5.090;2024-03-29T10:21:33;2.83;;;0.75;;
22939;SDS011;11636;52.086;5.090;2024-03-29T10:24:12;3.38;;;0.90;;
22939;SDS011;11636;52.086;5.090;2024-03-29T10:26:46;5.70;;;1.10;;
22939;SDS011;11636;52.086;5.090;2024-03-29T10:29:13;3.50;;;1.20;;
22939;SDS011;11636;52.086;5.090;2024-03-29T10:31:39;3.92;;;1.00;;
22939;SDS011;11636;52.086;5.090;2024-03-29T10:34:11;2.90;;;1.20;;
22939;SDS011;11636;52.086;5.090;2024-03-29T10:36:40;4.97;;;1.45;;
22939;SDS011;11636;52.086;5.090;2024-03-29T10:39:13;4.88;;;1.55;;
22939;SDS011;11636;52.086;5.090;2024-03-29T10:41:40;3.72;;;1.23;;
22939;SDS011;11636;52.086;5.090;2024-03-29T10:44:10;2.88;;;1.23;;
22939;SDS011;11636;52.086;5.090;2024-03-29T10:46:44;3.13;;;1.25;;
22939;SDS011;11636;52.086;5.090;2024-03-29T10:49:19;2.50;;;0.98;;
22939;SDS011;11636;52.086;5.090;2024-03-29T10:51:54;3.40;;;1.25;;
22939;SDS011;11636;52.086;5.090;2024-03-29T10:54:30;4.05;;;1.00;;
22939;SDS011;11636;52.086;5.090;2024-03-29T10:56:59;2.85;;;1.10;;
22939;SDS011;11636;52.086;5.090;2024-03-29T10:59:48;4.25;;;1.13;;
22939;SDS011;11636;52.086;5.090;2024-03-29T11:05:22;3.38;;;0.98;;
22939;SDS011;11636;52.086;5.090;2024-03-29T11:07:57;3.10;;;1.10;;
22939;SDS011;11636;52.086;5.090;2024-03-29T11:10:36;3.20;;;1.10;;
22939;SDS011;11636;52.086;5.090;2024-03-29T11:16:00;3.58;;;1.00;;
22939;SDS011;11636;52.086;5.090;2024-03-29T11:18:32;2.55;;;0.90;;
22939;SDS011;11636;52.086;5.090;2024-03-29T11:20:59;2.58;;;0.80;;
22939;SDS011;11636;52.086;5.090;2024-03-29T11:23:32;3.67;;;1.13;;
22939;SDS011;11636;52.086;5.090;2024-03-29T11:25:58;4.00;;;1.10;;
22939;SDS011;11636;52.086;5.090;2024-03-29T11:31:08;3.10;;;0.95;;
22939;SDS011;11636;52.086;5.090;2024-03-29T11:33:35;4.05;;;1.20;;
22939;SDS011;11636;52.086;5.090;2024-03-29T11:38:40;2.67;;;1.10;;
22939;SDS011;11636;52.086;5.090;2024-03-29T11:41:13;4.30;;;1.63;;
22939;SDS011;11636;52.086;5.090;2024-03-29T11:43:46;3.28;;;1.40;;
22939;SDS011;11636;52.086;5.090;2024-03-29T11:46:20;4.90;;;1.50;;
22939;SDS011;11636;52.086;5.090;2024-03-29T11:48:53;4.05;;;2.00;;
22939;SDS011;11636;52.086;5.090;2024-03-29T11:51:20;3.72;;;1.80;;
22939;SDS011;11636;52.086;5.090;2024-03-29T11:53:55;4.03;;;1.92;;
22939;SDS011;11636;52.086;5.090;2024-03-29T11:56:28;4.45;;;1.90;;
22939;SDS011;11636;52.086;5.090;2024-03-29T11:58:54;4.75;;;2.65;;
22939;SDS011;11636;52.086;5.090;2024-03-29T12:01:25;4.65;;;2.50;;
22939;SDS011;11636;52.086;5.090;2024-03-29T12:03:58;4.35;;;2.30;;
22939;SDS011;11636;52.086;5.090;2024-03-29T12:06:24;5.57;;;2.30;;
22939;SDS011;11636;52.086;5.090;2024-03-29T12:08:57;5.60;;;2.80;;
22939;SDS011;11636;52.086;5.090;2024-03-29T12:11:24;5.45;;;3.30;;
22939;SDS011;11636;52.086;5.090;2024-03-29T12:13:52;9.32;;;2.90;;
22939;SDS011;11636;52.086;5.090;2024-03-29T12:16:24;4.30;;;2.80;;
22939;SDS011;11636;52.086;5.090;2024-03-29T12:18:56;6.05;;;3.10;;
22939;SDS011;11636;52.086;5.090;2024-03-29T12:21:23;5.30;;;3.40;;
22939;SDS011;11636;52.086;5.090;2024-03-29T12:23:56;4.82;;;3.20;;
22939;SDS011;11636;52.086;5.090;2024-03-29T12:26:28;4.18;;;2.60;;
22939;SDS011;11636;52.086;5.090;2024-03-29T12:28:56;4.90;;;3.05;;
22939;SDS011;11636;52.086;5.090;2024-03-29T12:31:29;3.90;;;2.20;;
22939;SDS011;11636;52.086;5.090;2024-03-29T12:34:02;3.22;;;1.90;;
22939;SDS011;11636;52.086;5.090;2024-03-29T12:36:27;3.78;;;1.70;;
22939;SDS011;11636;52.086;5.090;2024-03-29T12:39:01;4.30;;;2.13;;
22939;SDS011;11636;52.086;5.090;2024-03-29T12:41:29;6.03;;;2.10;;
22939;SDS011;11636;52.086;5.090;2024-03-29T12:44:01;4.25;;;1.98;;
22939;SDS011;11636;52.086;5.090;2024-03-29T12:46:35;3.85;;;2.05;;
22939;SDS011;11636;52.086;5.090;2024-03-29T12:49:00;3.42;;;1.75;;
22939;SDS011;11636;52.086;5.090;2024-03-29T12:51:35;4.25;;;2.20;;
22939;SDS011;11636;52.086;5.090;2024-03-29T12:54:01;4.03;;;2.45;;
22939;SDS011;11636;52.086;5.090;2024-03-29T12:56:35;4.65;;;2.80;;
22939;SDS011;11636;52.086;5.090;2024-03-29T12:59:03;4.47;;;2.50;;
22939;SDS011;11636;52.086;5.090;2024-03-29T13:04:03;4.65;;;2.40;;
22939;SDS011;11636;52.086;5.090;2024-03-29T13:06:29;4.45;;;2.40;;
22939;SDS011;11636;52.086;5.090;2024-03-29T13:09:02;3.55;;;2.28;;
22939;SDS011;11636;52.086;5.090;2024-03-29T13:11:27;5.68;;;2.85;;
22939;SDS011;11636;52.086;5.090;2024-03-29T13:16:26;4.78;;;3.60;;
22939;SDS011;11636;52.086;5.090;2024-03-29T13:18:59;5.82;;;3.00;;
22939;SDS011;11636;52.086;5.090;2024-03-29T13:21:25;4.88;;;3.35;;
22939;SDS011;11636;52.086;5.090;2024-03-29T13:23:51;4.93;;;2.83;;
22939;SDS011;11636;52.086;5.090;2024-03-29T13:26:24;5.22;;;3.10;;
22939;SDS011;11636;52.086;5.090;2024-03-29T13:28:49;4.22;;;2.92;;
22939;SDS011;11636;52.086;5.090;2024-03-29T13:31:21;4.03;;;3.03;;
22939;SDS011;11636;52.086;5.090;2024-03-29T13:33:48;4.05;;;2.95;;
22939;SDS011;11636;52.086;5.090;2024-03-29T13:36:14;6.38;;;2.42;;
22939;SDS011;11636;52.086;5.090;2024-03-29T13:38:47;4.35;;;2.45;;
22939;SDS011;11636;52.086;5.090;2024-03-29T13:41:12;3.72;;;1.90;;
22939;SDS011;11636;52.086;5.090;2024-03-29T13:43:42;5.63;;;2.10;;
22939;SDS011;11636;52.086;5.090;2024-03-29T13:46:14;4.10;;;2.10;;
22939;SDS011;11636;52.086;5.090;2024-03-29T13:48:40;5.28;;;2.58;;
22939;SDS011;11636;52.086;5.090;2024-03-29T13:51:13;4.93;;;2.58;;
22939;SDS011;11636;52.086;5.090;2024-03-29T13:53:41;5.07;;;2.75;;
22939;SDS011;11636;52.086;5.090;2024-03-29T13:56:07;4.95;;;2.35;;
22939;SDS011;11636;52.086;5.090;2024-03-29T13:58:39;4.07;;;2.10;;
22939;SDS011;11636;52.086;5.090;2024-03-29T14:01:05;3.83;;;2.88;;
22939;SDS011;11636;52.086;5.090;2024-03-29T14:03:37;5.47;;;3.17;;
22939;SDS011;11636;52.086;5.090;2024-03-29T14:06:03;9.13;;;3.20;;
22939;SDS011;11636;52.086;5.090;2024-03-29T14:08:37;5.78;;;2.83;;
22939;SDS011;11636;52.086;5.090;2024-03-29T14:11:03;5.15;;;2.75;;
22939;SDS011;11636;52.086;5.090;2024-03-29T14:13:36;5.03;;;2.50;;
22939;SDS011;11636;52.086;5.090;2024-03-29T14:16:02;3.35;;;2.20;;
22939;SDS011;11636;52.086;5.090;2024-03-29T14:18:28;3.35;;;2.08;;
22939;SDS011;11636;52.086;5.090;2024-03-29T14:21:00;4.05;;;2.28;;
22939;SDS011;11636;52.086;5.090;2024-03-29T14:23:27;3.55;;;1.98;;
22939;SDS011;11636;52.086;5.090;2024-03-29T14:25:59;3.38;;;1.70;;
22939;SDS011;11636;52.086;5.090;2024-03-29T14:28:26;4.22;;;2.03;;
22939;SDS011;11636;52.086;5.090;2024-03-29T14:33:24;2.58;;;1.58;;
22939;SDS011;11636;52.086;5.090;2024-03-29T14:35:49;4.10;;;1.95;;
22939;SDS011;11636;52.086;5.090;2024-03-29T14:38:22;2.63;;;1.40;;
22939;SDS011;11636;52.086;5.090;2024-03-29T14:40:48;4.72;;;1.73;;
22939;SDS011;11636;52.086;5.090;2024-03-29T14:45:47;2.95;;;1.30;;
22939;SDS011;11636;52.086;5.090;2024-03-29T14:48:15;4.88;;;1.40;;
22939;SDS011;11636;52.086;5.090;2024-03-29T14:50:47;2.50;;;1.20;;
22939;SDS011;11636;52.086;5.090;2024-03-29T14:53:13;3.33;;;1.17;;
22939;SDS011;11636;52.086;5.090;2024-03-29T14:58:11;3.75;;;1.00;;
22939;SDS011;11636;52.086;5.090;2024-03-29T15:00:37;2.70;;;1.05;;
22939;SDS011;11636;52.086;5.090;2024-03-29T15:03:09;3.63;;;1.00;;
22939;SDS011;11636;52.086;5.090;2024-03-29T15:05:36;2.08;;;0.80;;
22939;SDS011;11636;52.086;5.090;2024-03-29T15:08:02;1.65;;;0.70;;
22939;SDS011;11636;52.086;5.090;2024-03-29T15:10:35;3.17;;;0.82;;
22939;SDS011;11636;52.086;5.090;2024-03-29T15:13:00;2.88;;;1.35;;
22939;SDS011;11636;52.086;5.090;2024-03-29T15:15:33;2.88;;;1.10;;
22939;SDS011;11636;52.086;5.090;2024-03-29T15:18:02;2.92;;;1.13;;
22939;SDS011;11636;52.086;5.090;2024-03-29T15:20:36;4.20;;;1.40;;
22939;SDS011;11636;52.086;5.090;2024-03-29T15:23:01;3.42;;;1.20;;
22939;SDS011;11636;52.086;5.090;2024-03-29T15:25:34;3.47;;;1.40;;
22939;SDS011;11636;52.086;5.090;2024-03-29T15:28:00;3.65;;;1.40;;
22939;SDS011;11636;52.086;5.090;2024-03-29T15:30:42;5.50;;;1.40;;
22939;SDS011;11636;52.086;5.090;2024-03-29T15:33:13;2.60;;;1.17;;
22939;SDS011;11636;52.086;5.090;2024-03-29T15:35:38;4.55;;;1.30;;
22939;SDS011;11636;52.086;5.090;2024-03-29T15:38:11;3.78;;;1.42;;
22939;SDS011;11636;52.086;5.090;2024-03-29T15:40:42;2.80;;;1.05;;
22939;SDS011;11636;52.086;5.090;2024-03-29T15:43:08;2.40;;;1.02;;
22939;SDS011;11636;52.086;5.090;2024-03-29T15:45:41;3.65;;;1.13;;